Terminal Aerodrome Forecast
Issued by NWS Cleveland, OH

Home | Current Version | Previous Version | Text Only | Print | Product List | Glossary Off
Versions: 1 2 3 4 5 6 7 8 9 10 11 12 13 14 15 16 17 18

000
FTUS41 KCLE 151700
TAFYNG
TAF
KYNG 151734Z 1518/1618 02010KT P6SM BKN200
     FM161400 15010KT P6SM SCT060 OVC100
     FM161600 16012KT P6SM VCSH SCT030 OVC040=

USA.gov is the U.S. government's official web portal to all federal, state and local government web resources and services.